Time;durP1;ratioP1;P1;durP2;ratioP2;P2;SDS_P1;SDS_P2;PMS_P1;PMS_P2;Temp;Humidity;BMP_temperature;BMP_pressure;BME280_temperature;BME280_humidity;BME280_pressure;Samples;Min_cycle;Max_cycle;Signal;HPM_P1;HPM_P2
2022/11/13 00:00:52;;;;;;;5.82;4.60;;;;;;;;;;5036902;28;20206;-73
2022/11/13 00:03:19;;;;;;;5.70;5.10;;;;;;;;;;5037295;28;20217;-73
2022/11/13 00:05:48;;;;;;;5.40;4.90;;;;;;;;;;5037211;28;20263;-75
2022/11/13 00:08:16;;;;;;;5.03;4.40;;;;;;;;;;5037127;28;20205;-74
2022/11/13 00:10:44;;;;;;;5.10;4.55;;;;;;;;;;5037430;28;20252;-75
2022/11/13 00:13:11;;;;;;;6.07;4.50;;;;;;;;;;5037768;28;20245;-74
2022/11/13 00:15:39;;;;;;;6.53;4.88;;;;;;;;;;5037643;28;20241;-72
2022/11/13 00:18:06;;;;;;;5.20;4.53;;;;;;;;;;5037518;28;20537;-75
2022/11/13 00:20:34;;;;;;;5.13;4.40;;;;;;;;;;5036598;28;20251;-74
2022/11/13 00:23:03;;;;;;;5.13;4.43;;;;;;;;;;5036307;28;20206;-74
2022/11/13 00:25:31;;;;;;;5.45;4.80;;;;;;;;;;5036946;28;20220;-73
2022/11/13 00:27:59;;;;;;;5.78;4.68;;;;;;;;;;5036985;28;20682;-74
2022/11/13 00:30:26;;;;;;;6.18;4.47;;;;;;;;;;5036570;28;20502;-74
2022/11/13 00:32:54;;;;;;;5.30;4.28;;;;;;;;;;5037241;28;20216;-74
2022/11/13 00:35:21;;;;;;;4.55;4.15;;;;;;;;;;5036330;28;20226;-73
2022/11/13 00:37:49;;;;;;;4.95;4.25;;;;;;;;;;5037264;28;20573;-73
2022/11/13 00:40:19;;;;;;;4.78;4.30;;;;;;;;;;5037139;28;20209;-74
2022/11/13 00:42:46;;;;;;;5.53;4.45;;;;;;;;;;5041273;28;20198;-72
2022/11/13 00:45:14;;;;;;;5.15;4.38;;;;;;;;;;5047280;28;20483;-73
2022/11/13 00:47:41;;;;;;;5.45;4.30;;;;;;;;;;5037113;28;20201;-72
2022/11/13 00:50:09;;;;;;;6.07;4.30;;;;;;;;;;5036864;28;20201;-72
2022/11/13 00:52:37;;;;;;;6.10;4.65;;;;;;;;;;5036360;28;20214;-72
2022/11/13 00:55:05;;;;;;;4.93;4.43;;;;;;;;;;5036292;28;20517;-73
2022/11/13 00:57:34;;;;;;;4.28;3.88;;;;;;;;;;5036894;28;20657;-73
2022/11/13 01:00:02;;;;;;;4.85;3.95;;;;;;;;;;5036463;28;20233;-72
2022/11/13 01:02:30;;;;;;;4.57;4.10;;;;;;;;;;5039401;28;20288;-73
2022/11/13 01:04:57;;;;;;;4.80;4.30;;;;;;;;;;5052561;28;20205;-73
2022/11/13 01:07:25;;;;;;;4.32;3.85;;;;;;;;;;5056691;28;20209;-73
2022/11/13 01:09:52;;;;;;;5.53;4.35;;;;;;;;;;5056705;28;20471;-73
2022/11/13 01:12:20;;;;;;;5.57;4.32;;;;;;;;;;5056605;28;20589;-73
2022/11/13 01:14:49;;;;;;;5.80;4.05;;;;;;;;;;5056261;28;20248;-73
2022/11/13 01:17:17;;;;;;;4.45;4.00;;;;;;;;;;5056135;28;20229;-73
2022/11/13 01:19:44;;;;;;;4.78;4.25;;;;;;;;;;5056426;28;20204;-73
2022/11/13 01:22:12;;;;;;;4.50;4.10;;;;;;;;;;5058996;28;20205;-73
2022/11/13 01:24:40;;;;;;;5.32;4.20;;;;;;;;;;5059654;28;20215;-73
2022/11/13 01:27:08;;;;;;;4.82;4.25;;;;;;;;;;5060381;28;20248;-73
2022/11/13 01:29:35;;;;;;;4.70;4.20;;;;;;;;;;5060135;28;20211;-73
2022/11/13 01:32:04;;;;;;;3.65;3.35;;;;;;;;;;5060000;28;20295;-73
2022/11/13 01:34:32;;;;;;;4.22;3.83;;;;;;;;;;5059991;28;20209;-73
2022/11/13 01:37:00;;;;;;;4.70;4.07;;;;;;;;;;5059780;28;20205;-73
2022/11/13 01:39:28;;;;;;;4.20;3.80;;;;;;;;;;5059318;28;20248;-73
2022/11/13 01:41:55;;;;;;;4.20;3.78;;;;;;;;;;5059399;28;20248;-73
2022/11/13 01:44:23;;;;;;;4.55;4.03;;;;;;;;;;5059453;28;20326;-73
2022/11/13 01:46:54;;;;;;;4.18;3.78;;;;;;;;;;5059347;28;20660;-73
2022/11/13 01:49:28;;;;;;;3.95;3.65;;;;;;;;;;5059429;28;20570;-72
2022/11/13 01:51:57;;;;;;;4.30;3.90;;;;;;;;;;5059403;28;20300;-72
2022/11/13 01:54:28;;;;;;;4.25;3.85;;;;;;;;;;5059276;28;20466;-73
2022/11/13 01:56:57;;;;;;;4.30;3.90;;;;;;;;;;5059249;28;20621;-72
2022/11/13 01:59:26;;;;;;;4.32;3.92;;;;;;;;;;5058997;28;20248;-72
2022/11/13 02:01:55;;;;;;;3.90;3.60;;;;;;;;;;5059522;28;20205;-72
2022/11/13 02:04:23;;;;;;;4.15;3.80;;;;;;;;;;5059724;28;20476;-72
2022/11/13 02:06:55;;;;;;;3.97;3.65;;;;;;;;;;5059559;28;20205;-72
2022/11/13 02:09:24;;;;;;;3.88;3.58;;;;;;;;;;5059015;28;20215;-72
2022/11/13 02:11:52;;;;;;;4.88;3.95;;;;;;;;;;5059118;28;20291;-72
2022/11/13 02:14:20;;;;;;;3.97;3.38;;;;;;;;;;5059291;28;20212;-72
2022/11/13 02:16:49;;;;;;;4.28;3.88;;;;;;;;;;5059425;28;21753;-72
2022/11/13 02:19:20;;;;;;;4.32;3.92;;;;;;;;;;5058903;28;20209;-72
2022/11/13 02:21:51;;;;;;;4.00;3.70;;;;;;;;;;5058931;28;20205;-72
2022/11/13 02:24:25;;;;;;;3.95;3.50;;;;;;;;;;5058784;28;20224;-72
2022/11/13 02:26:54;;;;;;;4.07;3.67;;;;;;;;;;5058970;28;20201;-72
2022/11/13 02:29:22;;;;;;;3.92;3.63;;;;;;;;;;5058903;28;20205;-72
2022/11/13 02:31:50;;;;;;;4.13;3.70;;;;;;;;;;5058815;28;20248;-72
2022/11/13 02:34:18;;;;;;;3.85;3.53;;;;;;;;;;5058902;28;20503;-72
2022/11/13 02:36:45;;;;;;;3.70;3.40;;;;;;;;;;5058628;28;20264;-72
2022/11/13 02:39:14;;;;;;;4.10;3.80;;;;;;;;;;5058843;28;20640;-72
2022/11/13 02:41:44;;;;;;;3.78;3.47;;;;;;;;;;5058448;28;20237;-72
2022/11/13 02:44:11;;;;;;;3.75;3.45;;;;;;;;;;5058265;28;20201;-72
2022/11/13 02:46:39;;;;;;;4.13;3.78;;;;;;;;;;5058792;28;20342;-72
2022/11/13 02:49:07;;;;;;;3.45;3.15;;;;;;;;;;5058312;28;20212;-72
2022/11/13 02:51:35;;;;;;;3.78;3.47;;;;;;;;;;5058377;28;20205;-72
2022/11/13 02:54:03;;;;;;;3.40;3.10;;;;;;;;;;5058265;28;20205;-72
2022/11/13 02:56:31;;;;;;;3.40;3.10;;;;;;;;;;5058574;28;20235;-72
2022/11/13 02:59:00;;;;;;;3.55;3.25;;;;;;;;;;5058245;28;20229;-72
2022/11/13 03:01:28;;;;;;;3.78;3.47;;;;;;;;;;5057923;28;20524;-72
2022/11/13 03:03:56;;;;;;;3.58;3.28;;;;;;;;;;5058185;28;20231;-72
2022/11/13 03:06:23;;;;;;;3.42;3.13;;;;;;;;;;5058002;28;20200;-72
2022/11/13 03:08:51;;;;;;;3.65;3.35;;;;;;;;;;5058113;28;20209;-72
2022/11/13 03:11:19;;;;;;;3.85;3.47;;;;;;;;;;5058042;28;20532;-72
2022/11/13 03:13:46;;;;;;;3.38;3.08;;;;;;;;;;5058002;28;20657;-73
2022/11/13 03:16:17;;;;;;;3.92;3.55;;;;;;;;;;5057982;28;20311;-73
2022/11/13 03:18:44;;;;;;;3.42;3.13;;;;;;;;;;5057614;28;20208;-72
2022/11/13 03:21:13;;;;;;;3.00;2.80;;;;;;;;;;5057252;28;20205;-72
2022/11/13 03:23:43;;;;;;;4.05;3.38;;;;;;;;;;5057729;28;20213;-72
2022/11/13 03:26:12;;;;;;;3.60;3.30;;;;;;;;;;5057855;28;20531;-72
2022/11/13 03:28:40;;;;;;;3.25;2.95;;;;;;;;;;5057556;28;20613;-72
2022/11/13 03:31:08;;;;;;;3.35;3.13;;;;;;;;;;5057404;28;20212;-72
2022/11/13 03:33:38;;;;;;;3.53;3.22;;;;;;;;;;5058007;28;20237;-72
2022/11/13 03:36:06;;;;;;;3.25;2.95;;;;;;;;;;5057608;28;20618;-72
2022/11/13 03:38:33;;;;;;;3.42;3.13;;;;;;;;;;5057642;28;20205;-72
2022/11/13 03:41:01;;;;;;;3.75;3.22;;;;;;;;;;5057746;28;20296;-72
2022/11/13 03:43:29;;;;;;;3.63;3.33;;;;;;;;;;5056980;28;20456;-72
2022/11/13 03:45:56;;;;;;;3.60;3.30;;;;;;;;;;5057455;28;20200;-72
2022/11/13 03:48:24;;;;;;;3.63;3.33;;;;;;;;;;5057658;28;20236;-72
2022/11/13 03:50:55;;;;;;;3.28;2.97;;;;;;;;;;5057450;28;20205;-72
2022/11/13 03:53:23;;;;;;;3.55;3.25;;;;;;;;;;5057426;28;20288;-72
2022/11/13 03:55:51;;;;;;;3.65;3.35;;;;;;;;;;5057204;28;20315;-72
2022/11/13 03:58:19;;;;;;;3.00;2.80;;;;;;;;;;5056844;28;20244;-72
2022/11/13 04:00:47;;;;;;;3.22;2.92;;;;;;;;;;5057331;28;20244;-72
2022/11/13 04:03:15;;;;;;;3.40;3.10;;;;;;;;;;5057032;28;20291;-72
2022/11/13 04:05:43;;;;;;;3.80;3.50;;;;;;;;;;5057056;28;20204;-72
2022/11/13 04:08:12;;;;;;;3.47;3.17;;;;;;;;;;5057111;28;20583;-72
2022/11/13 04:10:40;;;;;;;3.40;3.10;;;;;;;;;;5057078;28;20205;-72
2022/11/13 04:13:08;;;;;;;3.30;3.00;;;;;;;;;;5057270;28;20205;-72
2022/11/13 04:15:35;;;;;;;3.38;3.08;;;;;;;;;;5056765;28;20255;-71
2022/11/13 04:18:03;;;;;;;3.42;2.95;;;;;;;;;;5056977;28;20205;-71
2022/11/13 04:20:31;;;;;;;3.42;3.13;;;;;;;;;;5057021;28;20287;-72
2022/11/13 04:22:58;;;;;;;3.30;3.00;;;;;;;;;;5056884;28;20216;-72
2022/11/13 04:25:28;;;;;;;3.30;3.00;;;;;;;;;;5056695;28;20240;-72
2022/11/13 04:27:55;;;;;;;3.20;2.92;;;;;;;;;;5056455;28;20242;-72
2022/11/13 04:30:23;;;;;;;2.92;2.72;;;;;;;;;;5056559;28;20204;-72
2022/11/13 04:32:51;;;;;;;3.05;2.85;;;;;;;;;;5056899;28;20205;-72
2022/11/13 04:35:19;;;;;;;3.13;2.83;;;;;;;;;;5056888;28;20566;-72
2022/11/13 04:37:46;;;;;;;3.00;2.75;;;;;;;;;;5056941;28;20297;-72
2022/11/13 04:40:14;;;;;;;3.50;3.20;;;;;;;;;;5056747;28;20204;-72
2022/11/13 04:42:48;;;;;;;3.25;2.95;;;;;;;;;;5057079;28;20204;-72
2022/11/13 04:45:16;;;;;;;3.20;2.90;;;;;;;;;;5057204;28;20205;-72
2022/11/13 04:47:44;;;;;;;2.83;2.63;;;;;;;;;;5056748;28;20205;-72
2022/11/13 04:50:12;;;;;;;3.30;3.00;;;;;;;;;;5056765;28;20574;-71
2022/11/13 04:52:39;;;;;;;2.90;2.70;;;;;;;;;;5055957;28;20236;-71
2022/11/13 04:55:07;;;;;;;3.47;3.17;;;;;;;;;;5057217;28;20499;-72
2022/11/13 04:57:35;;;;;;;2.85;2.65;;;;;;;;;;5060357;28;20280;-71
2022/11/13 05:00:05;;;;;;;3.03;2.72;;;;;;;;;;5060048;28;20310;-72
2022/11/13 05:02:33;;;;;;;2.92;2.67;;;;;;;;;;5060729;28;20301;-72
2022/11/13 05:05:00;;;;;;;3.03;2.72;;;;;;;;;;5060744;28;20204;-72
2022/11/13 05:07:28;;;;;;;2.78;2.58;;;;;;;;;;5060479;28;20201;-72
2022/11/13 05:09:56;;;;;;;3.03;2.72;;;;;;;;;;5060132;28;20209;-72
2022/11/13 05:12:23;;;;;;;3.03;2.72;;;;;;;;;;5060667;28;20205;-71
2022/11/13 05:14:50;;;;;;;3.10;2.90;;;;;;;;;;5060755;28;20205;-71
2022/11/13 05:17:19;;;;;;;2.95;2.75;;;;;;;;;;5060161;28;20239;-71
2022/11/13 05:19:47;;;;;;;3.25;3.05;;;;;;;;;;5060392;28;20236;-72
2022/11/13 05:22:14;;;;;;;3.20;2.90;;;;;;;;;;5060665;28;20228;-71
2022/11/13 05:24:42;;;;;;;2.80;2.60;;;;;;;;;;5060204;28;20205;-72
2022/11/13 05:27:09;;;;;;;2.80;2.60;;;;;;;;;;5060011;28;20201;-72
2022/11/13 05:29:36;;;;;;;3.22;2.92;;;;;;;;;;5060237;28;20204;-72
2022/11/13 05:32:04;;;;;;;3.05;2.85;;;;;;;;;;5059734;28;20209;-72
2022/11/13 05:34:33;;;;;;;2.97;2.78;;;;;;;;;;5060012;28;20209;-72
2022/11/13 05:37:00;;;;;;;2.90;2.70;;;;;;;;;;5059921;28;20229;-72
2022/11/13 05:39:28;;;;;;;3.00;2.80;;;;;;;;;;5060056;28;20205;-72
2022/11/13 05:41:55;;;;;;;2.83;2.63;;;;;;;;;;5060180;28;20242;-72
2022/11/13 05:44:22;;;;;;;2.85;2.65;;;;;;;;;;5059479;28;20300;-72
2022/11/13 05:46:50;;;;;;;2.70;2.50;;;;;;;;;;5059426;28;20228;-72
2022/11/13 05:49:17;;;;;;;3.20;2.90;;;;;;;;;;5059952;28;20205;-72
2022/11/13 05:51:46;;;;;;;2.85;2.65;;;;;;;;;;5059544;28;20598;-72
2022/11/13 05:54:14;;;;;;;3.10;2.80;;;;;;;;;;5059900;28;20205;-72
2022/11/13 05:56:41;;;;;;;2.88;2.67;;;;;;;;;;5059575;28;20237;-72
2022/11/13 05:59:08;;;;;;;2.70;2.50;;;;;;;;;;5059448;28;20531;-72
2022/11/13 06:01:36;;;;;;;2.90;2.70;;;;;;;;;;5059410;28;20215;-72
2022/11/13 06:04:04;;;;;;;2.70;2.50;;;;;;;;;;5059509;28;20612;-72
2022/11/13 06:06:32;;;;;;;2.90;2.70;;;;;;;;;;5059146;28;20223;-72
2022/11/13 06:09:01;;;;;;;2.58;2.38;;;;;;;;;;5059255;28;20220;-72
2022/11/13 06:11:29;;;;;;;3.00;2.80;;;;;;;;;;5059653;28;20212;-72
2022/11/13 06:13:58;;;;;;;2.80;2.60;;;;;;;;;;5059271;28;20578;-72
2022/11/13 06:16:26;;;;;;;2.90;2.70;;;;;;;;;;5059060;28;20229;-72
2022/11/13 06:18:56;;;;;;;2.65;2.40;;;;;;;;;;5059202;28;20224;-72
2022/11/13 06:21:24;;;;;;;3.00;2.72;;;;;;;;;;5058976;28;20582;-72
2022/11/13 06:23:52;;;;;;;3.22;2.92;;;;;;;;;;5059205;28;20208;-73
2022/11/13 06:26:22;;;;;;;2.80;2.58;;;;;;;;;;5058854;28;20211;-72
2022/11/13 06:28:50;;;;;;;3.10;2.80;;;;;;;;;;5058923;28;20215;-71
2022/11/13 06:31:18;;;;;;;2.63;2.42;;;;;;;;;;5058993;28;20215;-72
2022/11/13 06:33:46;;;;;;;3.05;2.75;;;;;;;;;;5058835;28;20590;-72
2022/11/13 06:36:14;;;;;;;2.80;2.60;;;;;;;;;;5059034;28;20256;-71
2022/11/13 06:38:42;;;;;;;2.60;2.40;;;;;;;;;;5058652;28;20376;-71
2022/11/13 06:41:10;;;;;;;2.80;2.60;;;;;;;;;;5058858;28;20205;-72
2022/11/13 06:43:39;;;;;;;2.67;2.47;;;;;;;;;;5058538;28;20216;-72
2022/11/13 06:46:07;;;;;;;2.80;2.60;;;;;;;;;;5058203;28;20216;-72
2022/11/13 06:48:34;;;;;;;2.70;2.50;;;;;;;;;;5058661;28;20215;-72
2022/11/13 06:51:02;;;;;;;2.67;2.47;;;;;;;;;;5058640;28;20570;-72
2022/11/13 06:53:29;;;;;;;2.67;2.47;;;;;;;;;;5058858;28;20215;-72
2022/11/13 06:55:57;;;;;;;2.70;2.50;;;;;;;;;;5058458;28;20301;-72
2022/11/13 06:58:24;;;;;;;2.83;2.63;;;;;;;;;;5058210;28;20287;-72
2022/11/13 07:00:53;;;;;;;2.70;2.50;;;;;;;;;;5058501;28;20643;-72
2022/11/13 07:03:21;;;;;;;2.67;2.47;;;;;;;;;;5058102;28;20205;-72
2022/11/13 07:05:49;;;;;;;2.92;2.63;;;;;;;;;;5057685;28;20209;-72
2022/11/13 07:08:17;;;;;;;2.60;2.40;;;;;;;;;;5058215;28;20201;-72
2022/11/13 07:10:44;;;;;;;2.50;2.30;;;;;;;;;;5057815;28;20219;-72
2022/11/13 07:13:12;;;;;;;2.63;2.42;;;;;;;;;;5058296;28;20716;-72
2022/11/13 07:15:40;;;;;;;2.92;2.72;;;;;;;;;;5058445;28;20231;-72
2022/11/13 07:18:09;;;;;;;2.60;2.40;;;;;;;;;;5057110;28;20315;-71
2022/11/13 07:20:36;;;;;;;2.65;2.45;;;;;;;;;;5058166;28;20209;-71
2022/11/13 07:23:04;;;;;;;2.75;2.55;;;;;;;;;;5057876;28;20205;-73
2022/11/13 07:25:32;;;;;;;2.42;2.22;;;;;;;;;;5058104;28;20205;-72
2022/11/13 07:27:59;;;;;;;2.72;2.53;;;;;;;;;;5057842;28;20322;-72
2022/11/13 07:30:28;;;;;;;2.70;2.50;;;;;;;;;;5057646;28;20217;-72
2022/11/13 07:32:55;;;;;;;2.75;2.40;;;;;;;;;;5057481;28;20205;-72
2022/11/13 07:35:24;;;;;;;2.85;2.65;;;;;;;;;;5057616;28;20215;-71
2022/11/13 07:37:55;;;;;;;2.72;2.53;;;;;;;;;;5056906;28;20617;-71
2022/11/13 07:40:23;;;;;;;2.78;2.58;;;;;;;;;;5056750;28;20215;-71
2022/11/13 07:42:57;;;;;;;2.60;2.40;;;;;;;;;;5057070;28;20213;-71
2022/11/13 07:45:24;;;;;;;2.60;2.40;;;;;;;;;;5057583;28;20231;-71
2022/11/13 07:47:52;;;;;;;3.17;2.70;;;;;;;;;;5057164;28;20211;-72
2022/11/13 07:50:19;;;;;;;3.05;2.85;;;;;;;;;;5057327;28;20219;-72
2022/11/13 07:52:48;;;;;;;2.80;2.60;;;;;;;;;;5057464;28;20209;-72
2022/11/13 07:55:16;;;;;;;3.40;3.10;;;;;;;;;;5057449;28;20231;-72
2022/11/13 07:57:43;;;;;;;2.70;2.50;;;;;;;;;;5056725;28;20233;-72
2022/11/13 08:00:11;;;;;;;2.80;2.60;;;;;;;;;;5056553;28;20252;-72
2022/11/13 08:02:38;;;;;;;3.05;2.80;;;;;;;;;;5057185;28;20209;-72
2022/11/13 08:05:06;;;;;;;2.80;2.60;;;;;;;;;;5056315;28;20219;-73
2022/11/13 08:07:33;;;;;;;33.65;30.75;;;;;;;;;;5056084;28;20703;-73
2022/11/13 08:10:02;;;;;;;35.25;32.22;;;;;;;;;;5056066;28;20205;-72
2022/11/13 08:12:29;;;;;;;26.55;24.15;;;;;;;;;;5057005;28;20614;-72
2022/11/13 08:14:57;;;;;;;24.20;22.17;;;;;;;;;;5056775;28;20205;-73
2022/11/13 08:17:24;;;;;;;23.33;21.17;;;;;;;;;;5056891;28;20240;-72
2022/11/13 08:19:51;;;;;;;22.83;20.73;;;;;;;;;;5056712;28;20215;-72
2022/11/13 08:22:19;;;;;;;21.10;19.20;;;;;;;;;;5057164;28;20217;-72
2022/11/13 08:24:46;;;;;;;20.60;18.80;;;;;;;;;;5056677;28;20219;-72
2022/11/13 08:27:15;;;;;;;19.73;17.92;;;;;;;;;;5056619;28;20201;-72
2022/11/13 08:29:42;;;;;;;18.40;16.80;;;;;;;;;;5057767;28;20211;-72
2022/11/13 08:32:10;;;;;;;18.08;16.55;;;;;;;;;;5060349;28;20205;-72
2022/11/13 08:34:37;;;;;;;15.85;14.35;;;;;;;;;;5060248;28;20216;-72
2022/11/13 08:37:04;;;;;;;16.23;14.70;;;;;;;;;;5060300;28;20228;-72
2022/11/13 08:39:34;;;;;;;15.10;13.70;;;;;;;;;;5060732;28;20227;-72
2022/11/13 08:42:01;;;;;;;14.95;13.57;;;;;;;;;;5060130;28;20292;-72
2022/11/13 08:44:30;;;;;;;13.80;12.60;;;;;;;;;;5060133;28;20211;-72
2022/11/13 08:46:58;;;;;;;12.60;11.50;;;;;;;;;;5060376;28;20205;-72
2022/11/13 08:49:25;;;;;;;12.93;11.63;;;;;;;;;;5060563;28;20205;-72
2022/11/13 08:51:53;;;;;;;12.27;11.05;;;;;;;;;;5060087;28;20205;-72
2022/11/13 08:54:20;;;;;;;12.35;11.05;;;;;;;;;;5060602;28;20207;-72
2022/11/13 08:56:48;;;;;;;11.43;10.43;;;;;;;;;;5060077;28;20582;-72
2022/11/13 08:59:16;;;;;;;10.85;9.85;;;;;;;;;;5059445;28;20248;-72
2022/11/13 09:01:45;;;;;;;10.65;9.75;;;;;;;;;;5059532;28;20496;-72
2022/11/13 09:04:12;;;;;;;9.50;8.75;;;;;;;;;;5059214;28;20204;-72
2022/11/13 09:06:40;;;;;;;9.68;8.77;;;;;;;;;;5060115;28;20212;-72
2022/11/13 09:09:07;;;;;;;9.50;8.70;;;;;;;;;;5059891;28;20227;-72
2022/11/13 09:11:35;;;;;;;9.93;9.00;;;;;;;;;;5059415;28;20604;-72
2022/11/13 09:14:02;;;;;;;9.15;8.15;;;;;;;;;;5059597;28;20629;-72
2022/11/13 09:16:29;;;;;;;8.77;8.07;;;;;;;;;;5059630;28;20779;-72
2022/11/13 09:18:58;;;;;;;8.88;8.10;;;;;;;;;;5059884;28;20260;-72
2022/11/13 09:21:26;;;;;;;9.45;8.55;;;;;;;;;;5059498;28;20808;-73
2022/11/13 09:23:53;;;;;;;8.85;8.02;;;;;;;;;;5058844;28;20493;-72
2022/11/13 09:26:21;;;;;;;10.23;8.75;;;;;;;;;;5059281;28;20201;-73
2022/11/13 09:28:48;;;;;;;10.93;9.80;;;;;;;;;;5059214;28;20193;-72
2022/11/13 09:31:15;;;;;;;11.45;10.35;;;;;;;;;;5058701;28;20212;-72
2022/11/13 09:33:43;;;;;;;9.95;9.02;;;;;;;;;;5059079;28;20205;-72
2022/11/13 09:36:13;;;;;;;12.00;10.00;;;;;;;;;;5058911;28;20208;-73
2022/11/13 09:38:40;;;;;;;10.73;9.68;;;;;;;;;;5058875;28;20319;-72
2022/11/13 09:41:10;;;;;;;11.23;10.10;;;;;;;;;;5057824;28;20467;-73
2022/11/13 09:43:40;;;;;;;10.88;9.98;;;;;;;;;;5059180;28;20515;-72
2022/11/13 09:46:09;;;;;;;10.55;9.65;;;;;;;;;;5058901;28;20205;-72
2022/11/13 09:48:38;;;;;;;10.75;9.75;;;;;;;;;;5059214;28;20204;-73
2022/11/13 09:51:07;;;;;;;10.98;9.98;;;;;;;;;;5058741;28;20533;-73
2022/11/13 09:53:36;;;;;;;12.07;11.07;;;;;;;;;;5059292;28;20215;-73
2022/11/13 09:56:07;;;;;;;11.45;10.45;;;;;;;;;;5058454;28;20266;-73
2022/11/13 09:58:41;;;;;;;11.32;10.32;;;;;;;;;;5058109;28;20228;-73
2022/11/13 10:01:14;;;;;;;10.68;9.77;;;;;;;;;;5058102;28;20497;-73
2022/11/13 10:03:46;;;;;;;10.18;9.38;;;;;;;;;;5058547;28;20205;-73
2022/11/13 10:06:17;;;;;;;10.68;9.63;;;;;;;;;;5058401;28;20217;-73
2022/11/13 10:08:50;;;;;;;9.52;8.73;;;;;;;;;;5058243;28;20205;-73
2022/11/13 10:11:21;;;;;;;8.95;8.23;;;;;;;;;;5057797;28;20624;-73
2022/11/13 10:13:50;;;;;;;9.30;8.43;;;;;;;;;;5057523;28;20490;-73
2022/11/13 10:16:21;;;;;;;9.10;8.27;;;;;;;;;;5057577;28;20488;-73
2022/11/13 10:18:49;;;;;;;8.48;7.68;;;;;;;;;;5057349;28;20225;-73
2022/11/13 10:21:20;;;;;;;8.80;7.85;;;;;;;;;;5058025;28;20205;-73
2022/11/13 10:23:52;;;;;;;7.47;6.88;;;;;;;;;;5057073;28;20514;-73
2022/11/13 10:26:21;;;;;;;7.75;7.05;;;;;;;;;;5057246;28;20205;-73
2022/11/13 10:28:49;;;;;;;7.63;6.97;;;;;;;;;;5057681;28;20193;-73
2022/11/13 10:31:17;;;;;;;6.68;6.07;;;;;;;;;;5057805;28;20227;-73
2022/11/13 10:33:44;;;;;;;9.90;6.15;;;;;;;;;;5056969;28;20209;-74
2022/11/13 10:36:16;;;;;;;7.13;6.22;;;;;;;;;;5056968;28;20209;-74
2022/11/13 10:38:45;;;;;;;6.45;5.50;;;;;;;;;;5057625;28;20221;-74
2022/11/13 10:41:15;;;;;;;8.75;6.40;;;;;;;;;;5057198;28;20680;-73
2022/11/13 10:43:51;;;;;;;5.95;5.35;;;;;;;;;;5057333;28;20660;-73
2022/11/13 10:46:20;;;;;;;5.68;5.10;;;;;;;;;;5057276;28;20215;-73
2022/11/13 10:48:47;;;;;;;5.75;5.35;;;;;;;;;;5056979;28;20587;-73
2022/11/13 10:51:22;;;;;;;6.65;5.20;;;;;;;;;;5056823;28;20209;-73
2022/11/13 10:53:50;;;;;;;5.50;5.07;;;;;;;;;;5055502;28;20212;-73
2022/11/13 10:56:28;;;;;;;5.30;4.80;;;;;;;;;;5056612;28;20606;-73
2022/11/13 10:59:09;;;;;;;5.30;4.80;;;;;;;;;;5056378;28;20331;-73
2022/11/13 11:01:37;;;;;;;5.50;4.75;;;;;;;;;;5056408;28;20570;-73
2022/11/13 11:04:04;;;;;;;4.72;4.32;;;;;;;;;;5056888;28;20209;-73
2022/11/13 11:06:33;;;;;;;5.30;4.80;;;;;;;;;;5056808;28;20605;-73
2022/11/13 11:09:07;;;;;;;5.30;4.60;;;;;;;;;;5056838;28;20785;-73
2022/11/13 11:14:23;;;;;;;5.50;4.88;;;;;;;;;;5056980;28;20331;-73
2022/11/13 11:16:52;;;;;;;5.55;4.13;;;;;;;;;;5056630;28;20290;-73
2022/11/13 11:19:22;;;;;;;7.47;4.38;;;;;;;;;;5056280;28;20766;-73
2022/11/13 11:21:51;;;;;;;5.10;4.18;;;;;;;;;;5056283;28;20205;-73
2022/11/13 11:24:22;;;;;;;5.80;4.05;;;;;;;;;;5055762;28;20205;-73
2022/11/13 11:26:54;;;;;;;4.97;4.25;;;;;;;;;;5055202;28;20502;-73
2022/11/13 11:29:25;;;;;;;4.20;3.90;;;;;;;;;;5055979;28;20200;-73
2022/11/13 11:31:55;;;;;;;4.10;3.70;;;;;;;;;;5055631;28;20205;-74
2022/11/13 11:34:26;;;;;;;5.03;3.90;;;;;;;;;;5056046;28;20205;-73
2022/11/13 11:36:57;;;;;;;4.03;3.63;;;;;;;;;;5056006;28;20215;-73
2022/11/13 11:39:28;;;;;;;4.40;4.00;;;;;;;;;;5055026;28;20236;-74
2022/11/13 11:41:59;;;;;;;4.10;3.70;;;;;;;;;;5055542;28;20500;-73
2022/11/13 11:44:34;;;;;;;5.05;4.10;;;;;;;;;;5056171;28;20291;-73
2022/11/13 11:47:01;;;;;;;4.53;4.13;;;;;;;;;;5055903;28;20205;-73
2022/11/13 11:49:29;;;;;;;3.97;3.67;;;;;;;;;;5056308;28;20201;-73
2022/11/13 11:52:03;;;;;;;4.80;3.60;;;;;;;;;;5056090;28;20205;-74
2022/11/13 11:54:37;;;;;;;4.00;3.53;;;;;;;;;;5056320;28;20231;-73
2022/11/13 11:57:11;;;;;;;6.03;4.03;;;;;;;;;;5055433;28;20204;-74
2022/11/13 11:59:44;;;;;;;5.60;3.40;;;;;;;;;;5055624;28;20236;-74
2022/11/13 12:02:22;;;;;;;4.45;3.40;;;;;;;;;;5054676;28;20290;-74
2022/11/13 12:04:56;;;;;;;3.47;3.20;;;;;;;;;;5054567;28;20216;-73
2022/11/13 12:07:31;;;;;;;3.85;3.42;;;;;;;;;;5055145;28;20215;-73
2022/11/13 12:10:03;;;;;;;3.38;2.97;;;;;;;;;;5055111;28;20212;-74
2022/11/13 12:12:38;;;;;;;3.53;3.22;;;;;;;;;;5055834;28;20216;-74
2022/11/13 12:15:10;;;;;;;3.10;2.90;;;;;;;;;;5055458;28;20208;-73
2022/11/13 12:17:47;;;;;;;4.60;3.10;;;;;;;;;;5055630;28;20205;-74
2022/11/13 12:20:19;;;;;;;4.35;3.30;;;;;;;;;;5055510;28;20205;-75
2022/11/13 12:22:50;;;;;;;3.35;3.05;;;;;;;;;;5055518;28;20205;-74
2022/11/13 12:25:20;;;;;;;4.55;2.70;;;;;;;;;;5055182;28;20205;-72
2022/11/13 12:27:53;;;;;;;3.80;3.30;;;;;;;;;;5055515;28;20677;-73
2022/11/13 12:30:21;;;;;;;5.32;3.05;;;;;;;;;;5055802;28;20571;-73
2022/11/13 12:32:55;;;;;;;4.32;2.88;;;;;;;;;;5055559;28;20300;-73
2022/11/13 12:35:24;;;;;;;4.28;2.75;;;;;;;;;;5054988;28;20219;-72
2022/11/13 12:37:54;;;;;;;3.40;2.95;;;;;;;;;;5052344;28;20193;-72
2022/11/13 12:40:28;;;;;;;4.53;3.00;;;;;;;;;;5045607;28;20211;-72
2022/11/13 12:42:58;;;;;;;4.00;2.53;;;;;;;;;;5043139;28;20205;-72
2022/11/13 12:45:30;;;;;;;2.83;2.20;;;;;;;;;;5035376;28;20213;-72
2022/11/13 12:48:08;;;;;;;3.88;2.80;;;;;;;;;;5052060;28;20205;-72
2022/11/13 12:50:35;;;;;;;2.47;2.20;;;;;;;;;;5054633;28;20574;-72
2022/11/13 12:53:04;;;;;;;2.53;2.33;;;;;;;;;;5054694;28;20209;-72
2022/11/13 12:55:34;;;;;;;2.75;2.45;;;;;;;;;;5054747;28;20213;-71
2022/11/13 12:58:09;;;;;;;3.88;2.47;;;;;;;;;;5054405;28;20211;-71
2022/11/13 13:00:38;;;;;;;2.40;2.20;;;;;;;;;;5054542;28;20251;-72
2022/11/13 13:03:17;;;;;;;5.07;2.30;;;;;;;;;;5054927;28;20655;-72
2022/11/13 13:06:03;;;;;;;2.97;2.33;;;;;;;;;;5054283;28;20197;-72
2022/11/13 13:08:46;;;;;;;3.42;2.28;;;;;;;;;;5041746;28;20197;-72
2022/11/13 13:11:18;;;;;;;2.40;2.08;;;;;;;;;;5054520;28;20212;-72
2022/11/13 13:13:53;;;;;;;2.30;2.10;;;;;;;;;;5053208;28;20213;-72
2022/11/13 13:16:24;;;;;;;2.55;2.25;;;;;;;;;;5055481;28;20564;-72
2022/11/13 13:18:56;;;;;;;3.22;2.25;;;;;;;;;;5057357;28;20597;-72
2022/11/13 13:21:25;;;;;;;3.22;2.20;;;;;;;;;;5057982;28;20221;-72
2022/11/13 13:23:55;;;;;;;2.53;2.22;;;;;;;;;;5057411;28;20204;-72
2022/11/13 13:26:24;;;;;;;2.55;2.28;;;;;;;;;;5058019;28;20205;-72
2022/11/13 13:28:54;;;;;;;2.30;2.10;;;;;;;;;;5056858;28;20197;-71
2022/11/13 13:31:36;;;;;;;2.83;1.90;;;;;;;;;;5057920;28;20236;-71
2022/11/13 13:34:14;;;;;;;2.20;2.00;;;;;;;;;;5054826;28;20204;-72
2022/11/13 13:36:47;;;;;;;2.50;1.88;;;;;;;;;;5057312;28;20209;-72
2022/11/13 13:39:24;;;;;;;1.90;1.80;;;;;;;;;;5057739;28;20227;-72
2022/11/13 13:42:01;;;;;;;2.40;2.20;;;;;;;;;;5057407;28;20213;-71
2022/11/13 13:44:57;;;;;;;2.50;2.00;;;;;;;;;;5057248;28;20200;-71
2022/11/13 13:47:30;;;;;;;1.75;1.60;;;;;;;;;;5055992;28;20301;-71
2022/11/13 13:52:44;;;;;;;2.03;1.90;;;;;;;;;;5056319;28;20205;-72
2022/11/13 13:55:17;;;;;;;2.67;1.70;;;;;;;;;;5056745;28;20212;-71
2022/11/13 13:57:47;;;;;;;1.80;1.52;;;;;;;;;;5056513;28;20240;-71
2022/11/13 14:00:20;;;;;;;2.00;1.80;;;;;;;;;;5056660;28;20229;-71
2022/11/13 14:02:51;;;;;;;1.77;1.67;;;;;;;;;;5056784;28;20205;-71
2022/11/13 14:05:29;;;;;;;2.63;1.90;;;;;;;;;;5057342;28;20219;-71
2022/11/13 14:07:59;;;;;;;2.00;1.73;;;;;;;;;;5056779;28;20205;-71
2022/11/13 14:10:27;;;;;;;1.83;1.73;;;;;;;;;;5056630;28;20212;-71
2022/11/13 14:12:55;;;;;;;1.70;1.50;;;;;;;;;;5056822;28;20590;-71
2022/11/13 14:15:26;;;;;;;1.65;1.52;;;;;;;;;;5056556;28;20511;-71
2022/11/13 14:18:05;;;;;;;1.95;1.80;;;;;;;;;;5057366;28;20244;-71
2022/11/13 14:20:44;;;;;;;1.75;1.60;;;;;;;;;;5056489;28;20734;-71
2022/11/13 14:23:17;;;;;;;1.70;1.60;;;;;;;;;;5056380;28;20216;-71
2022/11/13 14:25:51;;;;;;;1.77;1.67;;;;;;;;;;5055848;28;20217;-71
2022/11/13 14:28:21;;;;;;;1.63;1.52;;;;;;;;;;5056320;28;20205;-71
2022/11/13 14:30:57;;;;;;;1.65;1.38;;;;;;;;;;5056426;28;20258;-72
2022/11/13 14:33:26;;;;;;;1.70;1.60;;;;;;;;;;5055817;28;20204;-71
2022/11/13 14:35:56;;;;;;;1.80;1.70;;;;;;;;;;5057060;28;20205;-71
2022/11/13 14:38:30;;;;;;;1.90;1.80;;;;;;;;;;5056202;28;20205;-71
2022/11/13 14:41:01;;;;;;;1.92;1.70;;;;;;;;;;5056700;28;20209;-71
2022/11/13 14:43:30;;;;;;;1.70;1.60;;;;;;;;;;5056383;28;20516;-71
2022/11/13 14:46:02;;;;;;;1.80;1.70;;;;;;;;;;5055983;28;20263;-71
2022/11/13 14:48:32;;;;;;;1.73;1.63;;;;;;;;;;5056210;28;20292;-71
2022/11/13 14:51:03;;;;;;;1.70;1.60;;;;;;;;;;5055822;28;20197;-71
2022/11/13 14:53:36;;;;;;;1.70;1.60;;;;;;;;;;5055487;28;20201;-71
2022/11/13 14:56:07;;;;;;;1.60;1.50;;;;;;;;;;5054968;28;20819;-72
2022/11/13 14:58:37;;;;;;;1.90;1.80;;;;;;;;;;5055040;28;20248;-71